Time;durP1;ratioP1;P1;durP2;ratioP2;P2;SDS_P1;SDS_P2;PMS_P1;PMS_P2;Temp;Humidity;BMP_temperature;BMP_pressure;BME280_temperature;BME280_humidity;BME280_pressure;Samples;Min_cycle;Max_cycle;Signal;HPM_P1;HPM_P2
2022/09/20 00:00:43;;;;;;;1.73;1.35;;;21.60;46.60;;;;;;5049947;28;20413;-10
2022/09/20 00:03:13;;;;;;;1.95;1.67;;;21.50;46.50;;;;;;5049594;28;20057;-10
2022/09/20 00:05:41;;;;;;;1.40;1.25;;;21.60;46.60;;;;;;5049547;28;20051;-10
2022/09/20 00:08:09;;;;;;;1.95;1.55;;;21.50;46.50;;;;;;5049443;28;20148;-10
2022/09/20 00:10:36;;;;;;;2.38;1.70;;;21.60;46.60;;;;;;5049609;28;20053;-10
2022/09/20 00:13:03;;;;;;;1.55;1.45;;;21.60;46.50;;;;;;5049286;28;21031;-10
2022/09/20 00:15:29;;;;;;;1.98;1.55;;;21.60;46.50;;;;;;5049929;28;20060;-10
2022/09/20 00:17:56;;;;;;;2.33;1.60;;;21.50;46.50;;;;;;5049482;28;20052;-10
2022/09/20 00:20:22;;;;;;;2.33;1.48;;;21.50;46.60;;;;;;5049095;28;20061;-10
2022/09/20 00:22:51;;;;;;;2.40;1.70;;;21.50;46.70;;;;;;5049023;28;20049;-10
2022/09/20 00:25:18;;;;;;;1.60;1.48;;;21.50;46.60;;;;;;5049087;28;20102;-10
2022/09/20 00:27:44;;;;;;;2.85;1.40;;;21.50;46.60;;;;;;5049079;28;20057;-9
2022/09/20 00:30:11;;;;;;;1.48;1.38;;;21.50;46.60;;;;;;5049006;28;20045;-10
2022/09/20 00:32:37;;;;;;;2.00;1.80;;;21.50;46.50;;;;;;5049063;28;20049;-10
2022/09/20 00:35:06;;;;;;;1.88;1.55;;;21.50;46.60;;;;;;5049179;28;20052;-9
2022/09/20 00:37:36;;;;;;;1.73;1.48;;;21.50;46.60;;;;;;5049389;28;20566;-10
2022/09/20 00:40:04;;;;;;;2.08;1.20;;;21.50;46.60;;;;;;5051955;28;20092;-10
2022/09/20 00:42:30;;;;;;;1.85;1.35;;;21.60;46.60;;;;;;5052341;28;20053;-10
2022/09/20 00:45:26;;;;;;;1.42;1.17;;;21.50;46.50;;;;;;5052353;28;20498;-10
2022/09/20 00:47:58;;;;;;;2.75;1.60;;;21.50;46.50;;;;;;5052428;28;20052;-10
2022/09/20 00:50:39;;;;;;;1.98;1.40;;;21.50;46.60;;;;;;5051808;28;20053;-10
2022/09/20 00:53:11;;;;;;;2.05;1.52;;;21.50;46.70;;;;;;5052093;28;20053;-10
2022/09/20 00:55:44;;;;;;;1.95;1.60;;;21.50;46.60;;;;;;5052597;28;20082;-10
2022/09/20 00:58:11;;;;;;;1.48;1.23;;;21.50;46.60;;;;;;5051645;28;20056;-10
2022/09/20 01:00:38;;;;;;;2.08;1.60;;;21.50;46.60;;;;;;5051867;28;20056;-10
2022/09/20 01:03:08;;;;;;;2.70;1.77;;;21.50;46.60;;;;;;5051652;28;20410;-10
2022/09/20 01:05:34;;;;;;;2.28;1.70;;;21.50;46.60;;;;;;5051662;28;20140;-10
2022/09/20 01:08:01;;;;;;;2.20;1.65;;;21.50;46.60;;;;;;5051568;28;20135;-10
2022/09/20 01:10:27;;;;;;;2.55;1.70;;;21.50;46.60;;;;;;5051477;28;20490;-10
2022/09/20 01:12:53;;;;;;;2.08;1.67;;;21.50;46.60;;;;;;5051375;28;20117;-10
2022/09/20 01:15:20;;;;;;;3.08;1.70;;;21.50;46.60;;;;;;5051643;28;20084;-10
2022/09/20 01:17:51;;;;;;;2.17;1.65;;;21.50;46.60;;;;;;5051809;28;20056;-10
2022/09/20 01:20:27;;;;;;;2.38;1.80;;;21.50;46.60;;;;;;5051422;28;20086;-10
2022/09/20 01:23:30;;;;;;;1.98;1.60;;;21.50;46.60;;;;;;5051295;28;20163;-10
2022/09/20 01:26:22;;;;;;;2.22;1.50;;;21.50;46.60;;;;;;5051531;28;20605;-10
2022/09/20 01:28:49;;;;;;;1.73;1.52;;;21.50;46.50;;;;;;5051550;28;20045;-10
2022/09/20 01:31:27;;;;;;;2.15;1.67;;;21.50;46.50;;;;;;5051771;28;20053;-10
2022/09/20 01:34:05;;;;;;;2.00;1.80;;;21.50;46.50;;;;;;5052062;28;20045;-10
2022/09/20 01:36:41;;;;;;;2.40;1.80;;;21.50;46.50;;;;;;5051540;28;20060;-10
2022/09/20 01:39:34;;;;;;;1.85;1.55;;;21.50;46.50;;;;;;5051751;28;20390;-10
2022/09/20 01:42:09;;;;;;;3.30;1.80;;;21.50;46.60;;;;;;5051275;28;20049;-10
2022/09/20 01:44:51;;;;;;;2.45;1.60;;;21.50;46.60;;;;;;5033497;28;20068;-10
2022/09/20 01:47:32;;;;;;;2.72;1.90;;;21.50;46.60;;;;;;5050930;28;20136;-10
2022/09/20 01:50:27;;;;;;;3.72;2.08;;;21.50;46.60;;;;;;5050419;28;20049;-10
2022/09/20 01:53:08;;;;;;;1.98;1.60;;;21.50;46.70;;;;;;5051414;28;20443;-10
2022/09/20 01:55:42;;;;;;;2.75;1.85;;;21.50;46.60;;;;;;5050800;28;20052;-10
2022/09/20 01:58:33;;;;;;;1.65;1.50;;;21.50;46.60;;;;;;5051452;28;20546;-10
2022/09/20 02:01:22;;;;;;;2.65;1.95;;;21.50;46.50;;;;;;5051217;28;20547;-10
2022/09/20 02:03:51;;;;;;;2.35;1.65;;;21.50;46.50;;;;;;5051391;28;20059;-10
2022/09/20 02:06:31;;;;;;;2.15;1.83;;;21.50;46.60;;;;;;5050993;28;20478;-10
2022/09/20 02:09:09;;;;;;;2.03;1.70;;;21.50;46.60;;;;;;5051146;28;20080;-10
2022/09/20 02:11:53;;;;;;;2.08;1.60;;;21.50;46.60;;;;;;5051127;28;20056;-10
2022/09/20 02:14:40;;;;;;;1.50;1.25;;;21.50;46.60;;;;;;5050862;28;20052;-10
2022/09/20 02:17:44;;;;;;;1.60;1.40;;;21.50;46.60;;;;;;5050958;28;20049;-10
2022/09/20 02:20:32;;;;;;;3.05;1.85;;;21.50;46.60;;;;;;5050897;28;20549;-10
2022/09/20 02:23:15;;;;;;;3.13;1.80;;;21.50;46.50;;;;;;5050617;28;20550;-10
2022/09/20 02:26:16;;;;;;;2.65;1.80;;;21.50;46.60;;;;;;5051119;28;20061;-10
2022/09/20 02:28:51;;;;;;;1.88;1.60;;;21.50;46.60;;;;;;5050745;28;20059;-10
2022/09/20 02:31:36;;;;;;;2.28;1.85;;;21.50;46.60;;;;;;5051144;28;20049;-10
2022/09/20 02:34:16;;;;;;;2.47;1.65;;;21.50;46.50;;;;;;5051054;28;20109;-10
2022/09/20 02:37:03;;;;;;;1.70;1.60;;;21.50;46.50;;;;;;5050830;28;20061;-10
2022/09/20 02:39:55;;;;;;;2.58;1.75;;;21.50;46.60;;;;;;5050497;28;20057;-10
2022/09/20 02:42:34;;;;;;;2.20;1.67;;;21.50;46.50;;;;;;5071931;28;20486;-10
2022/09/20 02:45:32;;;;;;;2.55;2.15;;;21.50;46.60;;;;;;5050898;28;20139;-10
2022/09/20 02:48:03;;;;;;;1.83;1.55;;;21.50;46.60;;;;;;5050202;28;20053;-10
2022/09/20 02:51:06;;;;;;;2.65;1.85;;;21.50;46.60;;;;;;5050826;28;20053;-10
2022/09/20 02:53:42;;;;;;;5.05;2.00;;;21.50;46.60;;;;;;5050478;28;20108;-10
2022/09/20 02:56:25;;;;;;;2.30;1.80;;;21.50;46.50;;;;;;5050934;28;20143;-10
2022/09/20 02:59:01;;;;;;;2.50;1.90;;;21.50;46.50;;;;;;5050802;28;20056;-10
2022/09/20 03:02:01;;;;;;;2.30;1.92;;;21.50;46.50;;;;;;5050322;28;20558;-10
2022/09/20 03:04:55;;;;;;;2.22;1.80;;;21.50;46.50;;;;;;5059717;28;20482;-10
2022/09/20 03:07:50;;;;;;;2.20;1.90;;;21.50;46.50;;;;;;5050284;28;20049;-10
2022/09/20 03:10:40;;;;;;;2.28;1.83;;;21.50;46.50;;;;;;5050410;28;20084;-10
2022/09/20 03:13:13;;;;;;;2.00;1.60;;;21.50;46.40;;;;;;5050490;28;20455;-10
2022/09/20 03:16:05;;;;;;;3.30;2.10;;;21.60;46.40;;;;;;5050285;28;20451;-10
2022/09/20 03:19:03;;;;;;;2.40;1.80;;;21.60;46.30;;;;;;5050174;28;20548;-10
2022/09/20 03:21:51;;;;;;;3.10;1.85;;;21.60;46.20;;;;;;5049933;28;20471;-10
2022/09/20 03:24:41;;;;;;;1.80;1.65;;;21.70;46.20;;;;;;5049971;28;20053;-10
2022/09/20 03:27:18;;;;;;;2.53;2.28;;;21.70;46.10;;;;;;5049868;28;20064;-10
2022/09/20 03:29:46;;;;;;;2.83;2.10;;;21.70;46.10;;;;;;5049927;28;20490;-10
2022/09/20 03:32:12;;;;;;;3.45;2.00;;;21.80;46.10;;;;;;5050152;28;20474;-10
2022/09/20 03:35:23;;;;;;;2.42;1.70;;;21.70;46.00;;;;;;5050045;28;20061;-10
2022/09/20 03:38:02;;;;;;;;;;;21.80;46.10;;;;;;5050682;28;20132;-10
2022/09/20 03:40:51;;;;;;;2.78;2.08;;;21.70;46.10;;;;;;5049678;28;20361;-10
2022/09/20 03:43:42;;;;;;;2.33;1.83;;;21.70;46.00;;;;;;5049984;28;20053;-10
2022/09/20 03:46:16;;;;;;;2.70;1.85;;;21.80;46.10;;;;;;5049829;28;20086;-10
2022/09/20 03:48:51;;;;;;;2.75;2.08;;;21.70;46.00;;;;;;5049900;28;20498;-10
2022/09/20 03:51:50;;;;;;;2.17;1.65;;;21.70;46.10;;;;;;5050111;28;20049;-10
2022/09/20 03:54:41;;;;;;;2.05;1.80;;;21.60;46.20;;;;;;5049711;28;20049;-10
2022/09/20 03:57:27;;;;;;;2.00;1.80;;;21.60;46.30;;;;;;5049729;28;20057;-10
2022/09/20 04:00:13;;;;;;;3.45;1.70;;;21.60;46.40;;;;;;5057969;28;20428;-10
2022/09/20 04:03:22;;;;;;;2.90;2.00;;;21.50;46.40;;;;;;5049707;28;20053;-10
2022/09/20 04:06:25;;;;;;;2.40;1.92;;;21.50;46.40;;;;;;5049871;28;20045;-10
2022/09/20 04:09:27;;;;;;;2.08;1.77;;;21.60;46.40;;;;;;5049509;28;20076;-10
2022/09/20 04:12:04;;;;;;;2.72;1.83;;;21.60;46.30;;;;;;5049475;28;20053;-10
2022/09/20 04:14:52;;;;;;;2.65;1.80;;;21.60;46.30;;;;;;5049323;28;20490;-10
2022/09/20 04:17:46;;;;;;;4.60;2.10;;;21.60;46.40;;;;;;5049488;28;20045;-10
2022/09/20 04:20:16;;;;;;;2.58;1.80;;;21.60;46.40;;;;;;5048774;28;20143;-10
2022/09/20 04:22:45;;;;;;;2.47;1.70;;;21.50;46.30;;;;;;5048983;28;20064;-10
2022/09/20 04:25:16;;;;;;;2.42;1.80;;;21.60;46.30;;;;;;5049220;28;20077;-9
2022/09/20 04:27:47;;;;;;;2.53;1.80;;;21.60;46.30;;;;;;5049167;28;20079;-10
2022/09/20 04:30:17;;;;;;;2.58;1.77;;;21.60;46.40;;;;;;5048941;28;20060;-10
2022/09/20 04:33:24;;;;;;;2.10;1.83;;;21.60;46.30;;;;;;5049260;28;20053;-10
2022/09/20 04:36:28;;;;;;;4.95;2.33;;;21.60;46.30;;;;;;5049136;28;20098;-10
2022/09/20 04:39:19;;;;;;;1.98;1.65;;;21.50;46.30;;;;;;5049201;28;20440;-10
2022/09/20 04:42:30;;;;;;;2.28;1.83;;;21.50;46.40;;;;;;5049308;28;20053;-10
2022/09/20 04:45:34;;;;;;;2.10;1.67;;;21.50;46.40;;;;;;5048909;28;20607;-10
2022/09/20 04:48:30;;;;;;;1.95;1.60;;;21.50;46.30;;;;;;5048310;28;20056;-10
2022/09/20 04:51:24;;;;;;;2.53;1.70;;;21.50;46.40;;;;;;5049054;28;20106;-10
2022/09/20 04:54:15;;;;;;;3.78;2.13;;;21.50;46.40;;;;;;5048788;28;20049;-10
2022/09/20 04:57:05;;;;;;;2.78;1.92;;;21.50;46.40;;;;;;5048583;28;20049;-10
2022/09/20 05:00:00;;;;;;;3.33;1.85;;;21.50;46.40;;;;;;5048609;28;20145;-10
2022/09/20 05:02:53;;;;;;;2.28;1.83;;;21.50;46.40;;;;;;5048702;28;20048;-10
2022/09/20 05:05:37;;;;;;;2.15;1.70;;;21.50;46.40;;;;;;5048359;28;20152;-10
2022/09/20 05:08:35;;;;;;;2.40;1.80;;;21.50;46.40;;;;;;5048203;28;20052;-10
2022/09/20 05:11:19;;;;;;;3.95;1.98;;;21.50;46.40;;;;;;5048498;28;20052;-10
2022/09/20 05:14:11;;;;;;;2.42;1.95;;;21.50;46.40;;;;;;5048904;28;20175;-10
2022/09/20 05:17:16;;;;;;;2.83;2.13;;;21.50;46.40;;;;;;5048501;28;20164;-10
2022/09/20 05:19:47;;;;;;;3.05;1.80;;;21.50;46.40;;;;;;5048659;28;20509;-10
2022/09/20 05:22:47;;;;;;;1.52;1.30;;;21.60;46.30;;;;;;5048906;28;20056;-10
2022/09/20 05:25:37;;;;;;;1.80;1.55;;;21.60;46.30;;;;;;5049377;28;20049;-10
2022/09/20 05:28:30;;;;;;;2.65;1.67;;;21.70;46.20;;;;;;5051063;28;20131;-10
2022/09/20 05:31:09;;;;;;;3.08;1.90;;;21.70;46.10;;;;;;5051648;28;20483;-10
2022/09/20 05:33:43;;;;;;;2.92;1.80;;;21.80;46.10;;;;;;5051546;28;20403;-10
2022/09/20 05:36:36;;;;;;;3.05;1.48;;;21.80;45.90;;;;;;5051359;28;20481;-10
2022/09/20 05:39:20;;;;;;;2.83;1.83;;;21.90;45.80;;;;;;5051309;28;20083;-10
2022/09/20 05:42:03;;;;;;;1.88;1.60;;;22.00;46.10;;;;;;5051666;28;20386;-10
2022/09/20 05:44:36;;;;;;;3.47;1.88;;;22.10;45.40;;;;;;5051569;28;20473;-10
2022/09/20 05:47:27;;;;;;;2.10;1.35;;;22.20;45.30;;;;;;5051396;28;20145;-10
2022/09/20 05:50:20;;;;;;;3.27;1.67;;;22.30;45.00;;;;;;5051120;28;20057;-10
2022/09/20 05:52:58;;;;;;;3.80;1.80;;;22.40;44.80;;;;;;5051031;28;20048;-10
2022/09/20 05:55:37;;;;;;;3.53;1.80;;;22.50;44.60;;;;;;5051126;28;20053;-10
2022/09/20 05:58:32;;;;;;;2.28;1.70;;;22.70;44.30;;;;;;5050788;28;20060;-11
2022/09/20 06:01:12;;;;;;;3.30;2.03;;;22.70;44.20;;;;;;5051047;28;20532;-10
2022/09/20 06:04:16;;;;;;;2.72;1.95;;;22.70;44.20;;;;;;5050789;28;20053;-10
2022/09/20 06:07:16;;;;;;;2.22;1.60;;;22.70;44.30;;;;;;5050851;28;20061;-10
2022/09/20 06:10:15;;;;;;;2.25;1.60;;;22.70;44.30;;;;;;5050686;28;20045;-10
2022/09/20 06:12:51;;;;;;;1.95;1.70;;;22.70;44.10;;;;;;5049954;28;20053;-11
2022/09/20 06:15:44;;;;;;;2.97;1.80;;;22.80;44.10;;;;;;5050223;28;20506;-11
2022/09/20 06:18:42;;;;;;;4.28;1.67;;;22.80;44.00;;;;;;5050295;28;20053;-11
2022/09/20 06:21:37;;;;;;;2.50;1.80;;;22.90;43.90;;;;;;5050201;28;20438;-11
2022/09/20 06:24:11;;;;;;;2.42;1.63;;;22.90;43.80;;;;;;5050480;28;20057;-11
2022/09/20 06:26:37;;;;;;;2.17;1.63;;;23.00;43.80;;;;;;5050448;28;20125;-11
2022/09/20 06:29:10;;;;;;;2.58;1.65;;;23.00;43.80;;;;;;5050364;28;20454;-11
2022/09/20 06:31:36;;;;;;;3.30;1.80;;;23.00;43.70;;;;;;5050157;28;20045;-11
2022/09/20 06:34:12;;;;;;;2.88;1.58;;;23.00;43.80;;;;;;5050456;28;20056;-11
2022/09/20 06:42:21;;;;;;;3.13;1.77;;;23.10;43.50;;;;;;5050262;28;20090;-11
2022/09/20 06:44:47;;;;;;;1.63;1.38;;;23.20;43.40;;;;;;5050728;28;20053;-11
2022/09/20 06:47:13;;;;;;;2.53;1.73;;;23.20;43.30;;;;;;5050089;28;20044;-11
2022/09/20 06:49:41;;;;;;;2.63;1.75;;;23.30;43.30;;;;;;5050527;28;20067;-11
2022/09/20 06:52:12;;;;;;;2.35;1.60;;;23.30;43.20;;;;;;5050096;28;20056;-11
2022/09/20 06:54:42;;;;;;;1.50;1.40;;;23.30;43.20;;;;;;5050671;28;20068;-11
2022/09/20 06:57:11;;;;;;;2.85;1.50;;;23.40;43.10;;;;;;5050219;28;20048;-11
2022/09/20 06:59:37;;;;;;;2.35;1.60;;;23.40;43.60;;;;;;5049955;28;20506;-11
2022/09/20 07:02:02;;;;;;;2.00;1.67;;;23.50;42.90;;;;;;5050099;28;20057;-11
2022/09/20 07:04:28;;;;;;;4.15;1.55;;;23.50;42.80;;;;;;5050093;28;20057;-11
2022/09/20 07:07:01;;;;;;;2.67;1.60;;;23.50;42.70;;;;;;5050167;28;20479;-11
2022/09/20 07:09:27;;;;;;;2.90;1.80;;;23.60;42.70;;;;;;5050098;28;20068;-11
2022/09/20 07:11:54;;;;;;;2.38;1.63;;;23.60;42.70;;;;;;5049955;28;20128;-11
2022/09/20 07:14:19;;;;;;;1.92;1.45;;;23.60;42.60;;;;;;5049848;28;20053;-11
2022/09/20 07:16:45;;;;;;;1.85;1.45;;;23.60;42.50;;;;;;5049922;28;20101;-11
2022/09/20 07:19:11;;;;;;;2.63;1.88;;;23.70;42.50;;;;;;5049575;28;20503;-11
2022/09/20 07:21:36;;;;;;;2.03;1.58;;;23.70;43.00;;;;;;5050363;28;20542;-11
2022/09/20 07:24:02;;;;;;;2.33;1.77;;;23.70;42.40;;;;;;5050059;28;20136;-11
2022/09/20 07:26:29;;;;;;;1.90;1.48;;;23.70;42.40;;;;;;5049685;28;20525;-11
2022/09/20 07:28:56;;;;;;;1.88;1.58;;;23.80;42.30;;;;;;5049511;28;20063;-11
2022/09/20 07:31:23;;;;;;;2.38;1.60;;;23.80;42.30;;;;;;5049754;28;20045;-11
2022/09/20 07:33:49;;;;;;;1.73;1.30;;;23.80;42.30;;;;;;5049606;28;20052;-11
2022/09/20 07:36:15;;;;;;;1.60;1.50;;;23.80;42.20;;;;;;5050130;28;20136;-11
2022/09/20 07:38:42;;;;;;;1.90;1.30;;;23.80;42.30;;;;;;5049263;28;20075;-11
2022/09/20 07:41:09;;;;;;;2.50;1.65;;;23.80;42.40;;;;;;5048699;28;20045;-11
2022/09/20 07:43:35;;;;;;;2.20;1.40;;;23.70;42.40;;;;;;5049223;28;20095;-11
2022/09/20 07:46:01;;;;;;;2.75;1.95;;;23.70;42.40;;;;;;5049120;28;20053;-11
2022/09/20 07:48:33;;;;;;;2.78;1.48;;;23.70;42.50;;;;;;5047365;28;20056;-12
2022/09/20 07:51:07;;;;;;;1.95;1.50;;;23.70;42.60;;;;;;5047583;28;20478;-11
2022/09/20 07:53:32;;;;;;;2.13;1.70;;;23.70;42.60;;;;;;5049527;28;20129;-11
2022/09/20 07:56:00;;;;;;;2.42;1.48;;;23.70;42.60;;;;;;5049642;28;20045;-11
2022/09/20 07:58:29;;;;;;;2.20;1.52;;;23.70;42.60;;;;;;5048786;28;20060;-11
2022/09/20 08:01:00;;;;;;;2.30;1.42;;;23.60;42.60;;;;;;5046994;28;20095;-12
2022/09/20 08:03:26;;;;;;;2.15;1.63;;;23.60;42.70;;;;;;5051286;28;20057;-13
2022/09/20 08:06:01;;;;;;;3.28;1.70;;;23.50;42.70;;;;;;5046338;28;20057;-12
2022/09/20 08:08:28;;;;;;;2.42;1.70;;;23.50;42.80;;;;;;5046104;28;20045;-12
2022/09/20 08:11:05;;;;;;;1.67;1.42;;;23.40;42.90;;;;;;5029397;28;20152;-11
2022/09/20 08:13:34;;;;;;;2.95;1.83;;;23.40;43.00;;;;;;5047842;28;20048;-11
2022/09/20 08:16:01;;;;;;;2.50;1.50;;;23.40;43.10;;;;;;5048442;28;20105;-11
2022/09/20 08:18:28;;;;;;;3.63;1.63;;;23.20;43.20;;;;;;5048560;28;20049;-11
2022/09/20 08:20:54;;;;;;;2.55;1.65;;;23.20;43.30;;;;;;5048499;28;20057;-11
2022/09/20 08:23:21;;;;;;;2.10;1.33;;;23.10;43.40;;;;;;5048578;28;20044;-11
2022/09/20 08:25:47;;;;;;;3.08;1.48;;;23.10;43.60;;;;;;5048500;28;20049;-11
2022/09/20 08:28:13;;;;;;;3.08;1.33;;;23.10;43.70;;;;;;5048514;28;20063;-11
2022/09/20 08:30:39;;;;;;;4.63;1.88;;;23.00;43.80;;;;;;5048342;28;20136;-11
2022/09/20 08:33:05;;;;;;;2.50;1.90;;;22.90;43.90;;;;;;5048817;28;20053;-11
2022/09/20 08:35:34;;;;;;;2.42;1.48;;;22.90;43.90;;;;;;5047945;28;20409;-11
2022/09/20 08:38:00;;;;;;;2.25;1.52;;;22.90;44.50;;;;;;5048417;28;20044;-11
2022/09/20 08:40:28;;;;;;;2.78;1.83;;;22.80;44.10;;;;;;5047871;28;20140;-11
2022/09/20 08:42:54;;;;;;;2.20;1.40;;;22.80;44.20;;;;;;5048414;28;20045;-11
2022/09/20 08:45:22;;;;;;;3.03;1.48;;;22.70;44.30;;;;;;5048649;28;20048;-11
2022/09/20 08:47:59;;;;;;;2.70;1.70;;;22.70;44.40;;;;;;5027739;28;20368;-11
2022/09/20 08:50:25;;;;;;;2.63;1.65;;;22.70;44.50;;;;;;5048276;28;20497;-11
2022/09/20 08:52:54;;;;;;;1.67;1.50;;;22.60;44.50;;;;;;5047894;28;20056;-11
2022/09/20 08:55:23;;;;;;;1.85;1.30;;;22.60;44.50;;;;;;5048059;28;20059;-11
2022/09/20 08:57:55;;;;;;;1.95;1.65;;;22.50;44.70;;;;;;5048221;28;20056;-11
2022/09/20 09:00:32;;;;;;;2.85;1.60;;;22.50;44.70;;;;;;5050513;28;20045;-11
2022/09/20 09:03:03;;;;;;;2.55;1.50;;;22.50;44.90;;;;;;5051243;28;20106;-10
2022/09/20 09:05:51;;;;;;;3.75;1.55;;;22.40;44.90;;;;;;5051202;28;20052;-10
2022/09/20 09:08:29;;;;;;;2.55;1.80;;;22.40;45.00;;;;;;5051026;28;20045;-10
2022/09/20 09:11:16;;;;;;;3.03;1.70;;;22.30;45.00;;;;;;5050985;28;20045;-10
2022/09/20 09:14:03;;;;;;;2.35;1.30;;;22.30;45.10;;;;;;5051206;28;20061;-11
2022/09/20 09:16:32;;;;;;;4.60;2.08;;;22.30;45.10;;;;;;5051029;28;20057;-12
2022/09/20 09:19:28;;;;;;;2.78;1.40;;;22.30;45.10;;;;;;5050837;28;20045;-9
2022/09/20 09:22:02;;;;;;;2.40;1.60;;;22.40;45.10;;;;;;5050744;28;20049;-9
2022/09/20 09:24:32;;;;;;;3.20;1.77;;;22.40;45.10;;;;;;5050961;28;20076;-10
2022/09/20 09:27:15;;;;;;;2.40;1.33;;;22.40;45.10;;;;;;5050695;28;20109;-10
2022/09/20 09:29:52;;;;;;;3.85;1.60;;;22.30;45.20;;;;;;5050900;28;20086;-9
2022/09/20 09:32:27;;;;;;;2.83;1.70;;;22.30;45.20;;;;;;5051290;28;20059;-9
2022/09/20 09:34:53;;;;;;;4.22;1.83;;;22.30;45.20;;;;;;5051430;28;20528;-9
2022/09/20 09:37:25;;;;;;;3.92;1.65;;;22.30;45.20;;;;;;5051168;28;20049;-9
2022/09/20 09:40:08;;;;;;;2.50;1.50;;;22.30;45.20;;;;;;5051609;28;20045;-9
2022/09/20 09:42:33;;;;;;;3.20;1.88;;;22.40;45.10;;;;;;5051642;28;20057;-9
2022/09/20 09:45:25;;;;;;;1.95;1.40;;;22.40;45.10;;;;;;5051300;28;20048;-9
2022/09/20 09:47:52;;;;;;;4.45;1.52;;;22.40;45.10;;;;;;5050523;28;20055;-9
2022/09/20 09:50:24;;;;;;;2.38;1.63;;;22.40;45.10;;;;;;5050669;28;20078;-10
2022/09/20 09:53:01;;;;;;;2.47;1.52;;;22.30;45.00;;;;;;5050514;28;20494;-9
2022/09/20 09:55:56;;;;;;;3.03;1.48;;;22.30;45.10;;;;;;5051029;28;20506;-9
2022/09/20 09:58:28;;;;;;;2.47;1.60;;;22.30;45.20;;;;;;5050807;28;20125;-10
2022/09/20 10:00:56;;;;;;;3.28;1.88;;;22.30;45.20;;;;;;5050937;28;20482;-9
2022/09/20 10:03:34;;;;;;;3.83;1.70;;;22.30;45.20;;;;;;5050891;28;20060;-10
2022/09/20 10:06:10;;;;;;;3.75;1.65;;;22.30;45.20;;;;;;5050770;28;20117;-10
2022/09/20 10:09:06;;;;;;;2.28;1.55;;;22.30;45.20;;;;;;5050692;28;20595;-9
2022/09/20 10:11:47;;;;;;;3.35;1.73;;;22.30;45.20;;;;;;5049676;28;20060;-9
2022/09/20 10:14:40;;;;;;;1.45;1.25;;;22.30;45.30;;;;;;5050334;28;20060;-10
2022/09/20 10:17:33;;;;;;;2.53;1.60;;;22.30;45.20;;;;;;5050769;28;20045;-9
2022/09/20 10:20:30;;;;;;;1.95;1.40;;;22.30;45.60;;;;;;5049993;28;20084;-11
2022/09/20 10:23:15;;;;;;;2.00;1.48;;;22.30;45.10;;;;;;5050553;28;20049;-10
2022/09/20 10:26:00;;;;;;;3.53;1.52;;;22.30;45.30;;;;;;5050644;28;20049;-10
2022/09/20 10:28:47;;;;;;;3.25;1.80;;;22.30;45.20;;;;;;5050584;28;20060;-10
2022/09/20 10:31:30;;;;;;;2.75;1.45;;;22.30;45.20;;;;;;5050866;28;20467;-10
2022/09/20 10:34:24;;;;;;;2.10;1.63;;;22.30;45.30;;;;;;5050307;28;20212;-10
2022/09/20 10:36:56;;;;;;;2.08;1.48;;;22.30;45.20;;;;;;5050174;28;20056;-10
2022/09/20 10:39:32;;;;;;;1.95;1.42;;;22.30;45.20;;;;;;5050637;28;20111;-10
2022/09/20 10:45:12;;;;;;;1.98;1.40;;;22.30;45.00;;;;;;5050259;28;20109;-10
2022/09/20 10:47:49;;;;;;;3.90;1.55;;;22.30;45.10;;;;;;5050657;28;20482;-10
2022/09/20 10:50:29;;;;;;;2.80;1.58;;;22.30;45.10;;;;;;5050048;28;20056;-10
2022/09/20 10:52:55;;;;;;;3.05;1.65;;;22.30;45.00;;;;;;5050240;28;20056;-10
2022/09/20 10:55:54;;;;;;;2.55;1.77;;;22.30;45.00;;;;;;5048837;28;20544;-10
2022/09/20 10:58:46;;;;;;;1.73;1.38;;;22.30;45.20;;;;;;5049976;28;20048;-10
2022/09/20 11:01:30;;;;;;;2.35;1.48;;;22.20;45.20;;;;;;5050224;28;20058;-11
2022/09/20 11:04:33;;;;;;;2.20;1.42;;;22.20;45.20;;;;;;5049931;28;20406;-11
2022/09/20 11:07:25;;;;;;;2.10;1.38;;;22.30;45.20;;;;;;5049576;28;20091;-10
2022/09/20 11:10:00;;;;;;;1.75;1.42;;;22.20;45.20;;;;;;5050007;28;20045;-10
2022/09/20 11:12:42;;;;;;;3.05;1.70;;;22.20;45.20;;;;;;5050240;28;20074;-10
2022/09/20 11:15:26;;;;;;;2.40;1.55;;;22.30;45.80;;;;;;5049907;28;20101;-10
2022/09/20 11:18:22;;;;;;;2.28;1.58;;;22.30;45.20;;;;;;5050153;28;20057;-10
2022/09/20 11:21:13;;;;;;;4.68;1.63;;;22.30;45.20;;;;;;5049955;28;20192;-10
2022/09/20 11:23:43;;;;;;;;;;;22.30;45.10;;;;;;5049939;28;20114;-10
2022/09/20 11:26:17;;;;;;;2.33;1.42;;;22.40;45.10;;;;;;5049872;28;20370;-11
2022/09/20 11:28:47;;;;;;;1.70;1.50;;;22.30;45.00;;;;;;5049736;28;20049;-10
2022/09/20 11:31:18;;;;;;;2.92;1.77;;;22.30;44.90;;;;;;5049865;28;20093;-10
2022/09/20 11:33:51;;;;;;;2.95;1.73;;;22.40;45.00;;;;;;5049664;28;20057;-10
2022/09/20 11:36:25;;;;;;;4.75;1.77;;;22.40;45.00;;;;;;5050130;28;20061;-10
2022/09/20 11:39:04;;;;;;;2.15;1.30;;;22.30;44.90;;;;;;5049935;28;20402;-10
2022/09/20 11:41:31;;;;;;;2.00;1.48;;;22.40;44.90;;;;;;5049482;28;20057;-10
2022/09/20 11:44:06;;;;;;;2.05;1.50;;;22.40;44.90;;;;;;5049646;28;20076;-10
2022/09/20 11:46:46;;;;;;;2.35;1.50;;;22.40;44.80;;;;;;5049366;28;20049;-11
2022/09/20 11:49:29;;;;;;;1.58;1.20;;;22.30;45.00;;;;;;5049685;28;20498;-11
2022/09/20 11:52:09;;;;;;;2.63;1.52;;;22.30;45.20;;;;;;5049397;28;20501;-11
2022/09/20 11:54:54;;;;;;;2.60;1.40;;;22.20;45.20;;;;;;5049803;28;20053;-11
2022/09/20 11:57:22;;;;;;;2.50;1.65;;;22.20;45.30;;;;;;5048219;28;20053;-11
2022/09/20 11:59:53;;;;;;;1.70;1.20;;;22.20;45.20;;;;;;5049288;28;20147;-11
2022/09/20 12:02:33;;;;;;;2.38;1.40;;;22.20;45.20;;;;;;5049521;28;20048;-11
2022/09/20 12:05:00;;;;;;;2.00;1.40;;;22.30;45.20;;;;;;5049332;28;20484;-11
2022/09/20 12:07:43;;;;;;;2.50;1.40;;;22.30;45.20;;;;;;5049133;28;20069;-11
2022/09/20 12:10:43;;;;;;;3.67;1.60;;;22.30;45.20;;;;;;5049394;28;20447;-11
2022/09/20 12:13:23;;;;;;;2.20;1.58;;;22.30;45.10;;;;;;5059641;28;20481;-11
2022/09/20 12:16:03;;;;;;;2.22;1.58;;;22.30;45.00;;;;;;5049094;28;20482;-11
2022/09/20 12:18:34;;;;;;;1.55;1.35;;;22.40;45.00;;;;;;5049424;28;20053;-11
2022/09/20 12:21:20;;;;;;;1.85;1.60;;;22.30;44.90;;;;;;5049188;28;20140;-11
2022/09/20 12:23:55;;;;;;;4.30;1.65;;;22.40;45.00;;;;;;5048856;28;20049;-11
2022/09/20 12:26:21;;;;;;;2.67;1.50;;;22.40;45.00;;;;;;5049207;28;20057;-11
2022/09/20 12:28:51;;;;;;;3.22;1.73;;;22.30;45.00;;;;;;5048957;28;20082;-11
2022/09/20 12:31:30;;;;;;;3.17;1.87;;;22.30;45.00;;;;;;5049658;28;20064;-11
2022/09/20 12:34:03;;;;;;;2.10;1.33;;;22.30;45.00;;;;;;5050026;28;20059;-11
2022/09/20 12:36:35;;;;;;;1.85;1.48;;;22.40;45.50;;;;;;5052167;28;20395;-11
2022/09/20 12:39:12;;;;;;;2.95;1.50;;;22.40;45.00;;;;;;5052009;28;20049;-11
2022/09/20 12:41:52;;;;;;;3.00;1.23;;;22.30;44.80;;;;;;5051856;28;20505;-11
2022/09/20 12:44:27;;;;;;;2.45;1.30;;;22.40;44.80;;;;;;5052016;28;20049;-11
2022/09/20 12:47:02;;;;;;;1.75;1.30;;;22.50;44.80;;;;;;5033769;28;20087;-11
2022/09/20 12:52:55;;;;;;;2.88;1.42;;;22.40;44.60;;;;;;5051693;28;20064;-11
2022/09/20 12:55:41;;;;;;;2.50;1.42;;;22.50;44.60;;;;;;5052027;28;20049;-11
2022/09/20 12:58:16;;;;;;;2.35;1.70;;;22.40;44.60;;;;;;5051239;28;20104;-11
2022/09/20 13:00:53;;;;;;;2.63;1.30;;;22.40;44.70;;;;;;5051550;28;20406;-11
2022/09/20 13:03:36;;;;;;;2.53;1.30;;;22.50;44.70;;;;;;5051041;28;20104;-11
2022/09/20 13:06:05;;;;;;;2.15;1.40;;;22.40;44.80;;;;;;5051461;28;20053;-12
2022/09/20 13:09:00;;;;;;;2.28;1.73;;;22.30;44.90;;;;;;5051435;28;20041;-11
2022/09/20 13:11:40;;;;;;;1.98;1.30;;;22.30;45.00;;;;;;5051403;28;20132;-11
2022/09/20 13:14:23;;;;;;;1.23;1.10;;;22.30;45.10;;;;;;5051234;28;20473;-11
2022/09/20 13:16:59;;;;;;;1.73;1.33;;;22.30;45.10;;;;;;5050960;28;20053;-11
2022/09/20 13:19:36;;;;;;;1.70;1.20;;;22.30;45.10;;;;;;5051578;28;20048;-11
2022/09/20 13:22:07;;;;;;;1.58;1.30;;;22.30;45.00;;;;;;5051426;28;20122;-11
2022/09/20 13:24:38;;;;;;;3.75;1.50;;;22.30;44.90;;;;;;5033920;28;20455;-11
2022/09/20 13:27:10;;;;;;;3.45;1.60;;;22.30;44.90;;;;;;5051391;28;20052;-11
2022/09/20 13:29:43;;;;;;;2.47;1.30;;;22.30;44.90;;;;;;5056629;28;20055;-11
2022/09/20 13:32:25;;;;;;;1.45;1.20;;;22.40;44.90;;;;;;5051270;28;20056;-11
2022/09/20 13:35:09;;;;;;;1.73;1.40;;;22.30;44.90;;;;;;5050933;28;20069;-11
2022/09/20 13:37:44;;;;;;;1.60;1.20;;;22.40;45.00;;;;;;5051108;28;20055;-11
2022/09/20 13:40:34;;;;;;;2.40;1.30;;;22.40;44.90;;;;;;5051081;28;20496;-11
2022/09/20 13:43:04;;;;;;;2.28;1.42;;;22.30;45.00;;;;;;5050913;28;20102;-11
2022/09/20 13:45:31;;;;;;;1.98;1.20;;;22.30;45.00;;;;;;5050326;28;20056;-11
2022/09/20 13:48:00;;;;;;;2.03;1.33;;;22.30;44.90;;;;;;5050940;28;20405;-11
2022/09/20 13:50:25;;;;;;;1.95;1.25;;;22.30;45.00;;;;;;5050946;28;20049;-11
2022/09/20 13:52:57;;;;;;;3.35;1.38;;;22.30;45.00;;;;;;5050897;28;20094;-11
2022/09/20 13:55:33;;;;;;;;;;;22.30;45.10;;;;;;5051640;28;20095;-11
2022/09/20 13:58:03;;;;;;;2.30;1.33;;;22.20;45.10;;;;;;5050920;28;20284;-11